Time;durP1;ratioP1;P1;durP2;ratioP2;P2;SDS_P1;SDS_P2;PMS_P1;PMS_P2;Temp;Humidity;BMP_temperature;BMP_pressure;BME280_temperature;BME280_humidity;BME280_pressure;Samples;Min_cycle;Max_cycle;Signal;HPM_P1;HPM_P2
2022/04/18 00:01:20;;;;;;;39.50;28.30;;;8.40;99.90;;;;;;5055607;28;20588;-69
2022/04/18 00:04:08;;;;;;;37.60;26.10;;;8.30;99.90;;;;;;5053237;28;21005;-68
2022/04/18 00:06:58;;;;;;;26.40;20.57;;;8.20;99.90;;;;;;5054009;28;20455;-68
2022/04/18 00:09:47;;;;;;;27.13;20.37;;;8.20;99.90;;;;;;5047174;28;20483;-70
2022/04/18 00:12:35;;;;;;;12.03;10.17;;;8.10;99.90;;;;;;5048243;28;20470;-69
2022/04/18 00:15:24;;;;;;;9.73;8.73;;;8.10;99.90;;;;;;5044151;28;20484;-69
2022/04/18 00:18:13;;;;;;;9.47;7.90;;;8.20;99.90;;;;;;5045722;28;20469;-69
2022/04/18 00:21:01;;;;;;;7.93;6.77;;;8.20;99.90;;;;;;5052197;28;20559;-69
2022/04/18 00:23:49;;;;;;;8.03;7.23;;;8.20;99.90;;;;;;5051332;28;20970;-69
2022/04/18 00:26:39;;;;;;;8.07;7.23;;;8.10;99.90;;;;;;5051973;28;20495;-69
2022/04/18 00:29:27;;;;;;;8.53;7.10;;;8.10;99.90;;;;;;5049480;28;20601;-68
2022/04/18 00:32:17;;;;;;;8.30;7.20;;;8.10;99.90;;;;;;5053211;28;20455;-69
2022/04/18 00:35:06;;;;;;;7.30;6.60;;;8.00;99.90;;;;;;5049459;28;20454;-69
2022/04/18 00:37:54;;;;;;;7.70;6.90;;;8.00;99.90;;;;;;5050076;28;20694;-69
2022/04/18 00:40:43;;;;;;;6.70;6.00;;;7.90;99.90;;;;;;5051668;28;20463;-69
2022/04/18 00:43:41;;;;;;;7.20;6.20;;;7.90;99.90;;;;;;5049277;28;20968;-69
2022/04/18 00:46:30;;;;;;;7.10;6.40;;;7.80;99.90;;;;;;5046433;28;20506;-69
2022/04/18 00:49:19;;;;;;;7.43;6.70;;;7.70;99.90;;;;;;5042430;28;21084;-69
2022/04/18 00:52:08;;;;;;;11.47;8.53;;;7.70;99.90;;;;;;5046886;28;20451;-69
2022/04/18 00:54:58;;;;;;;8.77;7.70;;;7.70;99.90;;;;;;5051083;28;20656;-69
2022/04/18 00:57:48;;;;;;;10.23;6.87;;;7.60;99.90;;;;;;5045716;28;21243;-69
2022/04/18 01:00:36;;;;;;;7.93;7.10;;;7.50;99.90;;;;;;5045587;28;20974;-69
2022/04/18 01:03:24;;;;;;;8.03;6.60;;;7.40;99.90;;;;;;5045409;28;20474;-70
2022/04/18 01:06:15;;;;;;;7.83;7.03;;;7.40;99.90;;;;;;5048323;28;20453;-69
2022/04/18 01:09:03;;;;;;;9.40;7.07;;;7.30;99.90;;;;;;5046637;28;20663;-69
2022/04/18 01:11:51;;;;;;;9.77;8.87;;;7.20;99.90;;;;;;5043459;28;20837;-69
2022/04/18 01:14:47;;;;;;;12.20;9.03;;;7.10;99.90;;;;;;5040178;28;20481;-69
2022/04/18 01:17:35;;;;;;;9.47;8.47;;;7.00;99.90;;;;;;5045447;28;20549;-69
2022/04/18 01:20:24;;;;;;;15.57;13.07;;;7.00;99.90;;;;;;5041650;28;20474;-69
2022/04/18 01:23:14;;;;;;;14.87;11.93;;;6.90;99.90;;;;;;5045643;28;20478;-70
2022/04/18 01:29:09;;;;;;;10.67;9.60;;;6.80;99.90;;;;;;5055802;28;20497;-69
2022/04/18 01:31:57;;;;;;;9.57;8.67;;;6.70;99.90;;;;;;5046558;28;20528;-70
2022/04/18 01:34:45;;;;;;;8.00;7.20;;;6.60;99.90;;;;;;5051009;28;20596;-69
2022/04/18 01:37:35;;;;;;;8.23;7.07;;;6.60;99.90;;;;;;5048754;28;20472;-69
2022/04/18 01:40:25;;;;;;;13.67;11.10;;;6.50;99.90;;;;;;5047981;28;20477;-70
2022/04/18 01:43:13;;;;;;;10.63;9.53;;;6.50;99.90;;;;;;5045355;28;20925;-69
2022/04/18 01:46:01;;;;;;;9.07;8.20;;;6.40;99.90;;;;;;5041498;28;20458;-69
2022/04/18 01:48:51;;;;;;;8.73;7.73;;;6.30;99.90;;;;;;5049045;28;20497;-70
2022/04/18 01:51:40;;;;;;;8.83;7.30;;;6.30;99.90;;;;;;5047068;28;20458;-69
2022/04/18 01:54:28;;;;;;;15.00;13.17;;;6.30;99.90;;;;;;5045705;28;20470;-70
2022/04/18 01:57:17;;;;;;;21.37;15.97;;;6.20;99.90;;;;;;5048695;28;20554;-69
2022/04/18 02:00:06;;;;;;;22.20;19.13;;;6.20;99.90;;;;;;5050326;28;20478;-69
2022/04/18 02:02:55;;;;;;;18.23;16.07;;;6.20;99.90;;;;;;5049152;28;20534;-69
2022/04/18 02:05:44;;;;;;;18.37;13.43;;;6.10;99.90;;;;;;5048593;28;20446;-69
2022/04/18 02:08:32;;;;;;;11.30;10.20;;;6.00;99.90;;;;;;5049079;28;20590;-69
2022/04/18 02:11:23;;;;;;;9.60;8.70;;;6.00;99.90;;;;;;5058108;28;20507;-69
2022/04/18 02:14:14;;;;;;;9.73;8.83;;;5.90;99.90;;;;;;5048681;28;20568;-69
2022/04/18 02:17:02;;;;;;;9.83;8.83;;;5.90;99.90;;;;;;5045342;28;20567;-70
2022/04/18 02:19:50;;;;;;;8.93;8.10;;;5.90;99.90;;;;;;5045497;28;20473;-69
2022/04/18 02:22:38;;;;;;;10.07;7.90;;;5.90;99.90;;;;;;5041778;28;20502;-69
2022/04/18 02:25:27;;;;;;;8.10;7.37;;;5.80;99.90;;;;;;5044522;28;20553;-69
2022/04/18 02:28:15;;;;;;;9.63;8.27;;;5.70;99.90;;;;;;5042942;28;20461;-69
2022/04/18 02:31:05;;;;;;;11.47;9.73;;;5.80;99.90;;;;;;5041740;28;20499;-69
2022/04/18 02:33:55;;;;;;;13.60;10.90;;;5.70;99.90;;;;;;5039673;28;20541;-71
2022/04/18 02:36:43;;;;;;;13.07;11.17;;;5.60;99.90;;;;;;5048143;28;20495;-71
2022/04/18 02:39:31;;;;;;;13.67;10.60;;;5.60;99.90;;;;;;5052196;28;20541;-71
2022/04/18 02:42:19;;;;;;;14.80;12.60;;;5.60;99.90;;;;;;5046490;28;20462;-71
2022/04/18 02:45:08;;;;;;;22.33;16.37;;;5.60;99.90;;;;;;5048422;28;20855;-71
2022/04/18 02:47:58;;;;;;;21.77;17.33;;;5.60;99.90;;;;;;5046621;28;20459;-71
2022/04/18 02:50:47;;;;;;;17.80;14.77;;;5.60;99.90;;;;;;5038625;28;21106;-71
2022/04/18 02:53:35;;;;;;;15.47;13.13;;;5.50;99.90;;;;;;5042749;28;20485;-71
2022/04/18 02:56:23;;;;;;;14.50;12.27;;;5.50;99.90;;;;;;5045652;28;20473;-71
2022/04/18 02:59:11;;;;;;;18.10;14.40;;;5.50;99.90;;;;;;5040453;28;21102;-69
2022/04/18 03:01:59;;;;;;;17.97;14.20;;;5.40;99.90;;;;;;5041633;28;20541;-69
2022/04/18 03:04:49;;;;;;;13.13;11.70;;;5.40;99.90;;;;;;5041226;28;20517;-70
2022/04/18 03:07:37;;;;;;;13.40;11.03;;;5.30;99.90;;;;;;5048241;28;20619;-69
2022/04/18 03:13:27;;;;;;;13.87;11.90;;;5.30;99.90;;;;;;5050817;28;20571;-69
2022/04/18 03:16:18;;;;;;;17.83;12.40;;;5.20;99.90;;;;;;5052352;28;20454;-69
2022/04/18 03:19:07;;;;;;;15.10;11.63;;;5.20;99.90;;;;;;5046979;28;21027;-70
2022/04/18 03:21:56;;;;;;;10.13;9.03;;;5.20;99.90;;;;;;5054075;28;20476;-69
2022/04/18 03:24:44;;;;;;;10.60;9.50;;;5.20;99.90;;;;;;5049352;28;20644;-70
2022/04/18 03:27:33;;;;;;;10.47;9.33;;;5.10;99.90;;;;;;5048701;28;20468;-69
2022/04/18 03:30:22;;;;;;;10.30;9.00;;;5.10;99.90;;;;;;5053233;28;20514;-70
2022/04/18 03:33:11;;;;;;;11.43;9.90;;;5.10;99.90;;;;;;5056297;28;20624;-70
2022/04/18 03:42:12;;;;;;;27.20;18.77;;;5.00;99.90;;;;;;5050298;28;20475;-69
2022/04/18 03:45:02;;;;;;;28.50;19.43;;;5.00;99.90;;;;;;5049957;28;20538;-70
2022/04/18 03:47:50;;;;;;;23.43;17.30;;;5.00;99.90;;;;;;5052250;28;20576;-69
2022/04/18 03:50:38;;;;;;;21.37;14.40;;;4.90;99.90;;;;;;5050213;28;20628;-70
2022/04/18 03:53:26;;;;;;;17.90;13.20;;;4.90;99.90;;;;;;5047360;28;20470;-70
2022/04/18 03:56:16;;;;;;;13.47;10.93;;;4.80;99.90;;;;;;5051793;28;20643;-69
2022/04/18 03:59:04;;;;;;;12.67;9.80;;;4.80;99.90;;;;;;5051505;28;20592;-70
2022/04/18 04:01:52;;;;;;;12.40;10.23;;;4.80;99.90;;;;;;5051087;28;20470;-70
2022/04/18 04:04:42;;;;;;;11.00;9.80;;;4.80;99.90;;;;;;5047637;28;20497;-70
2022/04/18 04:07:30;;;;;;;11.27;9.77;;;4.80;99.90;;;;;;5050482;28;20482;-69
2022/04/18 04:10:18;;;;;;;11.73;9.50;;;4.80;99.90;;;;;;5045731;28;20651;-69
2022/04/18 04:13:08;;;;;;;12.97;10.50;;;4.70;99.90;;;;;;5050571;28;20655;-69
2022/04/18 04:15:57;;;;;;;12.37;9.67;;;4.70;99.90;;;;;;5051019;28;20470;-70
2022/04/18 04:18:46;;;;;;;11.37;8.67;;;4.70;99.90;;;;;;5049340;28;20486;-70
2022/04/18 04:21:35;;;;;;;9.10;7.90;;;4.70;99.90;;;;;;5043717;28;20550;-69
2022/04/18 04:24:23;;;;;;;10.20;8.43;;;4.60;99.90;;;;;;5053796;28;20599;-70
2022/04/18 04:27:11;;;;;;;9.67;8.67;;;4.60;99.90;;;;;;5048377;28;20465;-69
2022/04/18 04:30:00;;;;;;;9.87;8.87;;;4.60;99.90;;;;;;5048850;28;20550;-70
2022/04/18 04:32:50;;;;;;;9.57;8.50;;;4.60;99.90;;;;;;5051451;28;21048;-69
2022/04/18 04:35:39;;;;;;;10.47;7.83;;;4.60;99.90;;;;;;5057429;28;20525;-70
2022/04/18 04:38:27;;;;;;;9.17;8.27;;;4.60;99.90;;;;;;5054995;28;20506;-70
2022/04/18 04:41:16;;;;;;;9.30;8.10;;;4.60;99.90;;;;;;5050357;28;20455;-70
2022/04/18 04:44:05;;;;;;;9.90;8.90;;;4.60;99.90;;;;;;5051832;28;20474;-69
2022/04/18 04:46:54;;;;;;;9.33;8.37;;;4.50;99.90;;;;;;5046784;28;20591;-70
2022/04/18 04:49:42;;;;;;;9.50;7.83;;;4.50;99.90;;;;;;5046110;28;20474;-70
2022/04/18 04:52:31;;;;;;;11.80;8.30;;;4.60;99.90;;;;;;5048992;28;20581;-69
2022/04/18 04:55:19;;;;;;;9.70;7.83;;;4.60;99.90;;;;;;5046814;28;21187;-70
2022/04/18 04:58:09;;;;;;;9.70;8.70;;;4.60;99.90;;;;;;5050115;28;20513;-69
2022/04/18 05:00:57;;;;;;;9.23;8.23;;;4.70;99.90;;;;;;5051357;28;20977;-69
2022/04/18 05:03:47;;;;;;;9.77;7.83;;;4.70;99.90;;;;;;5036498;28;21004;-70
2022/04/18 05:06:35;;;;;;;8.50;7.67;;;4.80;99.90;;;;;;5046878;28;20823;-69
2022/04/18 05:09:23;;;;;;;8.90;7.87;;;4.80;99.90;;;;;;5050544;28;20976;-70
2022/04/18 05:12:12;;;;;;;10.40;7.87;;;4.80;99.90;;;;;;5047464;28;20466;-70
2022/04/18 05:15:03;;;;;;;8.10;7.30;;;4.80;99.90;;;;;;5047315;28;20548;-70
2022/04/18 05:17:51;;;;;;;10.40;8.60;;;4.80;99.90;;;;;;5049729;28;20519;-70
2022/04/18 05:20:41;;;;;;;11.23;9.57;;;4.80;99.90;;;;;;5048997;28;20649;-70
2022/04/18 05:23:29;;;;;;;11.40;8.53;;;4.90;99.90;;;;;;5050595;28;20672;-69
2022/04/18 05:26:17;;;;;;;11.47;9.63;;;4.90;99.90;;;;;;5051308;28;20958;-70
2022/04/18 05:29:05;;;;;;;10.30;9.20;;;5.00;99.90;;;;;;5043857;28;20921;-70
2022/04/18 05:31:53;;;;;;;9.57;8.40;;;5.00;99.90;;;;;;5042176;28;20611;-70
2022/04/18 05:34:42;;;;;;;9.27;8.37;;;5.00;99.90;;;;;;5041536;28;20489;-70
2022/04/18 05:37:32;;;;;;;10.50;9.50;;;5.10;99.90;;;;;;5050463;28;20564;-69
2022/04/18 05:40:22;;;;;;;11.30;9.40;;;5.20;99.90;;;;;;5041780;28;20994;-70
2022/04/18 05:43:10;;;;;;;9.83;8.80;;;5.30;99.90;;;;;;5045612;28;20502;-70
2022/04/18 05:45:58;;;;;;;9.93;8.93;;;5.50;99.90;;;;;;5049189;28;20782;-69
2022/04/18 05:48:46;;;;;;;11.40;9.20;;;5.60;99.90;;;;;;5039202;28;20565;-70
2022/04/18 05:51:36;;;;;;;10.27;9.27;;;5.70;99.90;;;;;;5041416;28;20569;-70
2022/04/18 05:54:25;;;;;;;13.40;9.53;;;5.80;99.90;;;;;;5042153;28;20475;-70
2022/04/18 05:57:13;;;;;;;11.57;9.80;;;5.90;99.90;;;;;;5046992;28;20462;-70
2022/04/18 06:00:02;;;;;;;11.03;8.80;;;6.00;99.90;;;;;;5050967;28;20918;-71
2022/04/18 06:02:50;;;;;;;10.10;9.10;;;6.00;99.90;;;;;;5047007;28;20478;-70
2022/04/18 06:05:38;;;;;;;11.00;9.17;;;6.10;99.90;;;;;;5048123;28;20833;-69
2022/04/18 06:08:26;;;;;;;11.10;9.77;;;6.20;99.90;;;;;;5045383;28;20516;-70
2022/04/18 06:11:16;;;;;;;11.73;9.87;;;6.30;99.90;;;;;;5045713;28;20624;-70
2022/04/18 06:14:04;;;;;;;11.00;9.93;;;6.40;99.90;;;;;;5043294;28;21149;-70
2022/04/18 06:16:52;;;;;;;12.47;9.40;;;6.50;99.90;;;;;;5041145;28;20478;-70
2022/04/18 06:19:40;;;;;;;11.70;10.50;;;6.60;99.90;;;;;;5040817;28;20484;-70
2022/04/18 06:22:29;;;;;;;10.10;9.10;;;6.70;99.90;;;;;;5043590;28;20452;-70
2022/04/18 06:25:17;;;;;;;10.70;9.57;;;6.70;99.90;;;;;;5047737;28;20611;-70
2022/04/18 06:28:06;;;;;;;10.60;9.50;;;6.80;99.90;;;;;;5046534;28;20529;-70
2022/04/18 06:30:54;;;;;;;11.43;9.73;;;6.90;99.90;;;;;;5043528;28;20514;-69
2022/04/18 06:33:43;;;;;;;10.73;9.20;;;7.00;99.90;;;;;;5042143;28;21328;-69
2022/04/18 06:36:31;;;;;;;10.10;9.10;;;7.00;99.90;;;;;;5036743;28;20461;-68
2022/04/18 06:39:19;;;;;;;10.00;9.00;;;7.10;99.90;;;;;;5029890;28;20473;-69
2022/04/18 06:42:07;;;;;;;12.10;9.57;;;7.20;99.90;;;;;;5019859;28;20556;-69
2022/04/18 06:44:57;;;;;;;11.17;9.97;;;7.30;99.90;;;;;;5049825;28;20490;-70
2022/04/18 06:47:45;;;;;;;9.93;9.03;;;7.40;99.90;;;;;;5046130;28;20464;-71
2022/04/18 06:50:33;;;;;;;10.33;9.30;;;7.50;99.90;;;;;;5046127;28;20460;-71
2022/04/18 06:53:21;;;;;;;10.20;9.20;;;7.60;99.90;;;;;;5031837;28;20522;-70
2022/04/18 06:59:15;;;;;;;12.00;9.47;;;7.80;99.90;;;;;;5048589;28;20532;-70
2022/04/18 07:02:05;;;;;;;9.60;8.60;;;8.00;99.90;;;;;;5044312;28;20548;-69
2022/04/18 07:04:54;;;;;;;10.50;8.70;;;8.00;99.90;;;;;;5046892;28;20474;-70
2022/04/18 07:07:42;;;;;;;10.40;9.37;;;8.10;99.90;;;;;;5047579;28;20458;-70
2022/04/18 07:10:31;;;;;;;11.57;9.97;;;8.20;99.90;;;;;;5042674;28;20877;-69
2022/04/18 07:13:19;;;;;;;9.93;8.93;;;8.30;99.90;;;;;;5046296;28;20562;-69
2022/04/18 07:16:07;;;;;;;9.10;8.20;;;8.40;99.90;;;;;;5040680;28;20499;-69
2022/04/18 07:18:57;;;;;;;10.30;9.33;;;8.50;99.90;;;;;;5044405;28;21698;-69
2022/04/18 07:21:45;;;;;;;8.63;7.83;;;8.60;99.90;;;;;;5038929;28;20728;-70
2022/04/18 07:24:33;;;;;;;9.50;8.40;;;8.70;99.90;;;;;;5039220;28;20479;-69
2022/04/18 07:27:21;;;;;;;8.00;7.17;;;8.80;99.90;;;;;;5048470;28;20898;-69
2022/04/18 07:30:10;;;;;;;10.23;9.03;;;8.90;99.90;;;;;;5040053;28;20568;-69
2022/04/18 07:32:59;;;;;;;9.43;8.53;;;9.00;99.90;;;;;;5047280;28;20489;-69
2022/04/18 07:35:49;;;;;;;10.00;8.90;;;9.00;99.90;;;;;;5045121;28;21003;-69
2022/04/18 07:38:52;;;;;;;10.13;8.63;;;9.10;99.90;;;;;;5046278;28;20632;-70
2022/04/18 07:41:40;;;;;;;9.73;8.73;;;9.30;99.90;;;;;;5046534;28;20752;-70
2022/04/18 07:44:28;;;;;;;10.50;9.40;;;9.40;99.90;;;;;;5047380;28;21122;-70
2022/04/18 07:47:16;;;;;;;11.30;9.87;;;9.50;99.90;;;;;;5044324;28;20810;-69
2022/04/18 07:50:07;;;;;;;9.00;8.20;;;9.60;99.90;;;;;;5044525;28;20505;-69
2022/04/18 07:52:56;;;;;;;10.10;8.93;;;9.70;99.90;;;;;;5049668;28;20532;-69
2022/04/18 07:55:44;;;;;;;10.17;9.10;;;9.80;99.90;;;;;;5050839;28;20548;-70
2022/04/18 07:58:32;;;;;;;10.33;8.80;;;9.90;99.90;;;;;;5044037;28;20895;-70
2022/04/18 08:01:21;;;;;;;10.50;9.40;;;10.00;99.90;;;;;;5048956;28;20530;-69
2022/04/18 08:04:10;;;;;;;10.07;9.07;;;10.10;99.90;;;;;;5043222;28;21118;-70
2022/04/18 08:06:58;;;;;;;9.60;8.70;;;10.10;99.90;;;;;;5040842;28;20541;-70
2022/04/18 08:09:47;;;;;;;11.30;8.73;;;10.20;99.90;;;;;;5026767;28;20480;-69
2022/04/18 08:12:35;;;;;;;9.27;8.37;;;10.30;99.90;;;;;;5045426;28;20553;-71
2022/04/18 08:15:24;;;;;;;10.23;9.20;;;10.40;99.90;;;;;;5041319;28;20478;-69
2022/04/18 08:18:12;;;;;;;10.53;9.50;;;10.50;99.90;;;;;;5036670;28;21152;-69
2022/04/18 08:21:01;;;;;;;10.00;9.00;;;10.50;99.90;;;;;;5011926;28;20699;-70
2022/04/18 08:23:51;;;;;;;10.00;9.00;;;10.70;99.90;;;;;;5041431;28;20484;-70
2022/04/18 08:26:41;;;;;;;11.37;9.17;;;10.70;99.90;;;;;;5036792;28;20970;-69
2022/04/18 08:29:29;;;;;;;10.50;9.50;;;10.80;99.90;;;;;;5047567;28;20473;-70
2022/04/18 08:32:17;;;;;;;9.67;7.77;;;10.90;99.90;;;;;;5038039;28;20647;-72
2022/04/18 08:35:07;;;;;;;9.10;7.83;;;11.00;99.90;;;;;;5042354;28;20465;-70
2022/04/18 08:37:55;;;;;;;9.67;8.67;;;11.20;99.90;;;;;;5041746;28;20516;-70
2022/04/18 08:40:44;;;;;;;9.63;8.60;;;11.20;99.90;;;;;;5044907;28;20461;-70
2022/04/18 08:43:35;;;;;;;10.47;8.80;;;11.20;99.90;;;;;;5037370;28;20513;-71
2022/04/18 08:46:23;;;;;;;10.00;9.00;;;11.30;99.90;;;;;;5042092;28;20680;-71
2022/04/18 08:55:25;;;;;;;9.73;8.80;;;11.50;99.90;;;;;;5052174;28;20548;-71
2022/04/18 08:58:15;;;;;;;10.37;9.27;;;11.60;99.90;;;;;;5052930;28;20600;-71
2022/04/18 09:01:05;;;;;;;10.43;9.40;;;11.60;99.90;;;;;;5028562;28;20459;-72
2022/04/18 09:03:55;;;;;;;9.83;8.73;;;11.60;99.90;;;;;;5047396;28;20484;-71
2022/04/18 09:06:43;;;;;;;9.70;8.80;;;11.70;99.90;;;;;;5046614;28;20455;-70
2022/04/18 09:09:31;;;;;;;9.73;8.73;;;11.80;99.90;;;;;;5051934;28;20635;-72
2022/04/18 09:12:21;;;;;;;10.30;9.20;;;11.90;99.90;;;;;;5048319;28;20476;-72
2022/04/18 09:15:13;;;;;;;11.03;9.60;;;12.00;99.90;;;;;;5046683;28;20454;-72
2022/04/18 09:18:15;;;;;;;9.27;8.37;;;12.00;99.90;;;;;;5047664;28;20969;-71
2022/04/18 09:21:05;;;;;;;8.87;7.80;;;12.10;99.90;;;;;;5041144;28;21092;-71
2022/04/18 09:23:53;;;;;;;9.20;8.30;;;12.20;99.90;;;;;;5039828;28;20534;-70
2022/04/18 09:26:42;;;;;;;9.97;7.90;;;12.30;99.90;;;;;;5050492;28;20789;-70
2022/04/18 09:29:31;;;;;;;9.33;8.30;;;12.30;99.90;;;;;;5043942;28;22543;-71
2022/04/18 09:32:22;;;;;;;9.20;8.13;;;12.40;99.90;;;;;;5045632;28;20478;-70
2022/04/18 09:35:12;;;;;;;9.20;8.20;;;12.60;99.90;;;;;;5037852;28;20607;-70
2022/04/18 09:38:02;;;;;;;10.27;9.17;;;12.80;99.90;;;;;;5048424;28;20477;-70
2022/04/18 09:40:51;;;;;;;9.40;7.50;;;12.70;99.90;;;;;;5050864;28;20457;-72
2022/04/18 09:43:41;;;;;;;8.40;7.60;;;12.70;99.90;;;;;;5045641;28;20562;-70
2022/04/18 09:46:29;;;;;;;8.30;7.40;;;12.80;99.90;;;;;;5046069;28;21182;-70
2022/04/18 09:49:18;;;;;;;8.10;7.30;;;12.90;99.90;;;;;;5042112;28;20477;-72
2022/04/18 09:52:09;;;;;;;8.53;7.67;;;13.00;99.90;;;;;;5053351;28;20534;-71
2022/04/18 09:54:58;;;;;;;8.50;7.43;;;13.00;99.90;;;;;;5044800;28;20475;-70
2022/04/18 09:57:47;;;;;;;8.00;7.20;;;13.10;99.90;;;;;;5055081;28;20953;-70
2022/04/18 10:00:35;;;;;;;7.73;6.93;;;13.20;99.90;;;;;;5046143;28;20533;-71
2022/04/18 10:03:23;;;;;;;7.50;6.40;;;13.30;99.90;;;;;;5048297;28;20505;-70
2022/04/18 10:06:11;;;;;;;7.90;7.20;;;13.40;99.90;;;;;;5039008;28;21484;-70
2022/04/18 10:09:01;;;;;;;8.40;7.60;;;13.60;99.90;;;;;;5043823;28;21064;-70
2022/04/18 10:11:50;;;;;;;7.37;6.70;;;13.50;99.90;;;;;;5049962;28;20455;-71
2022/04/18 10:14:39;;;;;;;7.60;6.83;;;13.60;99.90;;;;;;5049832;28;20927;-70
2022/04/18 10:17:29;;;;;;;6.90;6.30;;;13.70;99.90;;;;;;5045167;28;20776;-70
2022/04/18 10:20:40;;;;;;;7.03;6.40;;;13.80;99.90;;;;;;5051327;28;20561;-70
2022/04/18 10:23:42;;;;;;;7.00;6.30;;;13.90;99.90;;;;;;5043516;28;20612;-72
2022/04/18 10:27:00;;;;;;;8.43;7.63;;;14.00;99.90;;;;;;5040264;28;21149;-71
2022/04/18 10:29:53;;;;;;;8.27;7.47;;;14.10;99.90;;;;;;5045200;28;20479;-71
2022/04/18 10:32:42;;;;;;;7.47;6.77;;;14.30;99.90;;;;;;5046598;28;20832;-72
2022/04/18 10:35:30;;;;;;;9.17;7.33;;;14.30;99.90;;;;;;5054295;28;20535;-71
2022/04/18 10:38:23;;;;;;;9.27;8.43;;;14.40;99.90;;;;;;5052290;28;20470;-71
2022/04/18 10:41:32;;;;;;;7.00;6.40;;;14.40;99.90;;;;;;5047960;28;20534;-72
2022/04/18 10:44:32;;;;;;;8.10;7.30;;;14.40;99.90;;;;;;5053616;28;20485;-72
2022/04/18 10:47:20;;;;;;;7.80;7.07;;;14.40;99.90;;;;;;5044715;28;20633;-72
2022/04/18 10:50:19;;;;;;;7.90;6.43;;;14.40;99.90;;;;;;5040709;28;20478;-71
2022/04/18 10:53:09;;;;;;;6.80;5.57;;;14.60;99.90;;;;;;5049602;28;20489;-71
2022/04/18 10:56:12;;;;;;;6.13;5.53;;;14.70;99.90;;;;;;5051889;28;20559;-71
2022/04/18 10:59:01;;;;;;;6.57;5.97;;;14.70;99.90;;;;;;5053305;28;20485;-71
2022/04/18 11:01:51;;;;;;;5.63;5.10;;;14.80;99.90;;;;;;5051240;28;20460;-71
2022/04/18 11:04:46;;;;;;;6.03;5.43;;;14.90;99.90;;;;;;5049591;28;20493;-71
2022/04/18 11:07:38;;;;;;;7.67;5.23;;;15.00;99.90;;;;;;5055062;28;20584;-71
2022/04/18 11:10:28;;;;;;;5.60;5.10;;;15.00;99.90;;;;;;5052346;28;20480;-71
2022/04/18 11:13:16;;;;;;;5.33;4.50;;;15.20;99.90;;;;;;5035304;28;20514;-70
2022/04/18 11:16:40;;;;;;;5.70;5.13;;;15.40;99.90;;;;;;5048663;28;20536;-71
2022/04/18 11:19:32;;;;;;;5.77;5.07;;;15.50;99.90;;;;;;5039045;28;20604;-71
2022/04/18 11:22:21;;;;;;;5.80;5.27;;;15.50;99.90;;;;;;5031198;28;20455;-71
2022/04/18 11:25:11;;;;;;;6.00;5.40;;;15.60;99.90;;;;;;5032590;28;20576;-71
2022/04/18 11:28:04;;;;;;;5.30;4.80;;;15.60;99.90;;;;;;5038681;28;20482;-72
2022/04/18 11:30:52;;;;;;;5.63;5.13;;;15.80;99.90;;;;;;5043771;28;20450;-72
2022/04/18 11:33:41;;;;;;;5.80;5.30;;;15.90;99.90;;;;;;5039956;28;20474;-72
2022/04/18 11:36:34;;;;;;;5.93;5.30;;;16.10;99.90;;;;;;5033827;28;20451;-73
2022/04/18 11:39:22;;;;;;;6.60;6.00;;;16.20;99.90;;;;;;5044920;28;20512;-73
2022/04/18 11:42:14;;;;;;;6.70;5.80;;;16.40;99.90;;;;;;5038269;28;20455;-73
2022/04/18 11:45:05;;;;;;;6.13;5.53;;;16.50;99.90;;;;;;5042933;28;20455;-73
2022/04/18 11:47:54;;;;;;;5.83;5.07;;;16.60;99.90;;;;;;5041429;28;20446;-72
2022/04/18 11:50:43;;;;;;;5.10;4.47;;;16.70;99.90;;;;;;5046393;28;20458;-74
2022/04/18 11:53:36;;;;;;;5.00;4.50;;;16.80;99.90;;;;;;5037322;28;21245;-72
2022/04/18 11:56:25;;;;;;;5.70;4.80;;;17.00;99.90;;;;;;5040573;28;21258;-71
2022/04/18 11:59:13;;;;;;;4.63;4.23;;;17.00;99.90;;;;;;5046460;28;21083;-71
2022/04/18 12:08:19;;;;;;;5.03;4.60;;;17.40;99.90;;;;;;5029936;28;20466;-71
2022/04/18 12:11:11;;;;;;;7.00;4.40;;;17.50;99.90;;;;;;5040599;28;20504;-70
2022/04/18 12:14:00;;;;;;;5.00;4.60;;;17.70;99.90;;;;;;5037234;28;20513;-72
2022/04/18 12:16:48;;;;;;;4.57;4.00;;;17.80;99.90;;;;;;5041984;28;20455;-72
2022/04/18 12:19:37;;;;;;;6.07;4.80;;;17.90;99.90;;;;;;5038879;28;20573;-70
2022/04/18 12:22:26;;;;;;;4.97;4.27;;;18.00;99.90;;;;;;5043391;28;20580;-70
2022/04/18 12:25:20;;;;;;;4.67;4.10;;;18.10;99.90;;;;;;5041876;28;20542;-70
2022/04/18 12:28:09;;;;;;;3.70;3.40;;;18.20;99.90;;;;;;5043243;28;20464;-70
2022/04/18 12:30:58;;;;;;;4.87;4.23;;;18.20;99.90;;;;;;5042170;28;20504;-70
2022/04/18 12:33:48;;;;;;;3.50;3.20;;;18.30;99.90;;;;;;5044832;28;20536;-70
2022/04/18 12:36:36;;;;;;;3.60;3.30;;;18.50;99.90;;;;;;5040643;28;20446;-70
2022/04/18 12:39:25;;;;;;;3.57;3.27;;;18.60;99.90;;;;;;5045939;28;21044;-71
2022/04/18 12:42:14;;;;;;;2.80;2.60;;;18.70;99.90;;;;;;5046443;28;20463;-70
2022/04/18 12:45:05;;;;;;;3.50;3.20;;;18.80;99.90;;;;;;5043586;28;20525;-71
2022/04/18 12:47:53;;;;;;;3.17;2.87;;;19.00;99.90;;;;;;5050235;28;20981;-71
2022/04/18 12:50:41;;;;;;;2.80;2.60;;;19.00;99.90;;;;;;5050553;28;20473;-70
2022/04/18 12:53:46;;;;;;;3.60;2.83;;;19.20;99.90;;;;;;5045949;28;20474;-70
2022/04/18 12:56:46;;;;;;;3.20;2.90;;;19.20;99.90;;;;;;5041472;28;20787;-70
2022/04/18 12:59:34;;;;;;;2.90;2.47;;;19.30;99.90;;;;;;5047845;28;20565;-71
2022/04/18 13:02:24;;;;;;;3.10;2.80;;;19.50;99.90;;;;;;5044234;28;20591;-72
2022/04/18 13:05:12;;;;;;;3.33;3.03;;;19.60;99.90;;;;;;5044546;28;20633;-71
2022/04/18 13:08:05;;;;;;;3.20;2.90;;;19.80;99.90;;;;;;5053578;28;20466;-72
2022/04/18 13:10:56;;;;;;;2.90;2.70;;;19.90;99.60;;;;;;5045919;28;20529;-71
2022/04/18 13:13:46;;;;;;;2.63;2.40;;;20.10;99.90;;;;;;5043918;28;20637;-70
2022/04/18 13:16:34;;;;;;;3.20;2.60;;;20.20;97.00;;;;;;5044125;28;20548;-71
2022/04/18 13:19:24;;;;;;;3.73;2.60;;;20.20;97.50;;;;;;5049715;28;20566;-71
2022/04/18 13:22:12;;;;;;;3.40;3.10;;;20.30;98.00;;;;;;5039078;28;20476;-70
2022/04/18 13:25:00;;;;;;;3.37;3.00;;;20.30;94.60;;;;;;5050937;28;20564;-71
2022/04/18 13:27:48;;;;;;;2.80;2.50;;;20.40;94.90;;;;;;5051288;28;20447;-70
2022/04/18 13:30:38;;;;;;;3.77;3.20;;;20.60;95.40;;;;;;5045302;28;20547;-71
2022/04/18 13:33:26;;;;;;;2.87;2.60;;;20.90;96.10;;;;;;5039662;28;20517;-71
2022/04/18 13:39:22;;;;;;;2.60;2.40;;;21.20;93.20;;;;;;5045982;28;20458;-72
2022/04/18 13:42:10;;;;;;;2.97;2.60;;;21.50;93.60;;;;;;5043808;28;20559;-72
2022/04/18 13:44:58;;;;;;;3.93;3.40;;;21.80;93.60;;;;;;5041627;28;20454;-72
2022/04/18 13:47:47;;;;;;;3.10;2.80;;;21.90;92.90;;;;;;5041339;28;20719;-71
2022/04/18 13:50:36;;;;;;;2.73;2.53;;;22.10;92.50;;;;;;5043829;28;20590;-72
2022/04/18 13:53:26;;;;;;;2.33;2.07;;;22.40;92.60;;;;;;5049615;28;20588;-72
2022/04/18 13:56:21;;;;;;;3.50;2.50;;;22.70;90.70;;;;;;5049074;28;20904;-72
2022/04/18 13:59:10;;;;;;;2.50;2.30;;;22.70;90.20;;;;;;5040362;28;20485;-71
2022/04/18 14:01:58;;;;;;;2.83;2.63;;;22.80;89.60;;;;;;5045414;28;20489;-71
2022/04/18 14:04:47;;;;;;;2.47;2.27;;;23.00;84.80;;;;;;5045856;28;20470;-71
2022/04/18 14:07:35;;;;;;;9.63;3.10;;;23.00;88.20;;;;;;5045780;28;20772;-72
2022/04/18 14:10:24;;;;;;;13.50;2.87;;;23.10;85.20;;;;;;5047140;28;21071;-71
2022/04/18 14:13:12;;;;;;;7.00;2.67;;;22.90;82.20;;;;;;5051802;28;20471;-71
2022/04/18 14:22:14;;;;;;;2.33;2.07;;;22.70;78.50;;;;;;5040286;28;20455;-71
2022/04/18 14:25:03;;;;;;;3.30;2.20;;;22.70;81.60;;;;;;5040153;28;20487;-71
2022/04/18 14:27:53;;;;;;;40.30;8.50;;;22.60;78.10;;;;;;5049763;28;20980;-71
2022/04/18 14:30:41;;;;;;;49.53;8.73;;;22.50;80.00;;;;;;5032300;28;20457;-72
2022/04/18 14:33:29;;;;;;;37.43;6.60;;;22.50;77.20;;;;;;5033287;28;21139;-74
2022/04/18 14:36:19;;;;;;;4.33;2.50;;;22.30;76.40;;;;;;5046015;28;20513;-74
2022/04/18 14:39:07;;;;;;;2.53;2.30;;;22.20;80.40;;;;;;5040518;28;20608;-75
2022/04/18 14:41:55;;;;;;;2.87;2.53;;;22.30;77.10;;;;;;5034633;28;20499;-75
2022/04/18 14:44:44;;;;;;;2.47;2.27;;;22.40;80.30;;;;;;5046269;28;20488;-74
2022/04/18 14:47:32;;;;;;;2.17;2.07;;;22.50;80.30;;;;;;5045709;28;21131;-75
2022/04/18 14:50:21;;;;;;;2.57;2.17;;;22.50;82.00;;;;;;5040602;28;21250;-74
2022/04/18 14:53:10;;;;;;;2.33;2.17;;;22.40;79.50;;;;;;5034180;28;21294;-74
2022/04/18 14:55:59;;;;;;;2.60;2.40;;;22.40;82.20;;;;;;5042252;28;20902;-74
2022/04/18 14:58:47;;;;;;;2.27;2.07;;;22.50;80.30;;;;;;5031302;28;20484;-74
2022/04/18 15:01:37;;;;;;;2.50;2.03;;;22.50;81.30;;;;;;5045004;28;20701;-74
2022/04/18 15:04:25;;;;;;;2.83;2.30;;;22.40;79.20;;;;;;5047553;28;20477;-74
2022/04/18 15:07:13;;;;;;;2.00;1.90;;;22.20;76.10;;;;;;5043912;28;20500;-75
2022/04/18 15:10:02;;;;;;;2.50;2.20;;;21.90;75.80;;;;;;5037202;28;20481;-75
2022/04/18 15:12:51;;;;;;;2.40;2.20;;;21.50;76.80;;;;;;5047876;28;21196;-74
2022/04/18 15:15:39;;;;;;;2.30;2.10;;;21.40;78.10;;;;;;5049050;28;20608;-74
2022/04/18 15:18:29;;;;;;;2.30;2.10;;;21.00;78.70;;;;;;5034226;28;21000;-74
2022/04/18 15:21:17;;;;;;;2.70;2.10;;;20.80;77.00;;;;;;5037715;28;20535;-75